createdAt,value
2023-05-10T00:14:01.310Z,32.7
2023-05-10T00:34:00.792Z,32.7
2023-05-10T00:54:01.271Z,32.7
2023-05-10T01:14:01.236Z,32.7
2023-05-10T01:34:01.223Z,32.7
2023-05-10T01:54:01.277Z,32.7
2023-05-10T02:14:01.204Z,32.69
2023-05-10T02:34:01.079Z,32.7
2023-05-10T02:54:01.251Z,32.7
2023-05-10T03:14:01.166Z,32.69
2023-05-10T03:34:01.138Z,32.69
2023-05-10T03:54:01.128Z,32.7
2023-05-10T04:34:01.144Z,32.69
2023-05-10T04:54:06.346Z,32.69
2023-05-10T05:14:01.057Z,32.69
2023-05-10T05:34:01.043Z,32.69
2023-05-10T05:54:01.036Z,32.69
2023-05-10T06:14:01.028Z,32.69
2023-05-10T06:34:01.006Z,32.69
2023-05-10T07:54:01.004Z,32.7
2023-05-10T09:34:00.117Z,32.7
2023-05-10T09:54:00.858Z,32.7
2023-05-10T10:14:00.340Z,32.7
2023-05-10T10:34:00.751Z,32.7
2023-05-10T10:54:00.816Z,32.7
2023-05-10T11:14:00.835Z,32.71
2023-05-10T11:34:00.878Z,32.71
2023-05-10T11:54:00.317Z,32.71
2023-05-10T12:34:00.745Z,32.71
2023-05-10T12:54:00.724Z,32.71
2023-05-10T13:14:00.711Z,32.72
2023-05-10T13:33:59.923Z,32.71
2023-05-10T13:53:59.944Z,32.71
2023-05-10T14:13:59.910Z,32.72
2023-05-10T14:34:00.667Z,32.72
2023-05-10T14:53:59.863Z,32.72
2023-05-10T15:14:00.633Z,32.72
2023-05-10T15:34:00.588Z,32.73
2023-05-10T16:14:00.583Z,32.73
2023-05-10T16:34:00.554Z,32.73
2023-05-10T16:54:00.561Z,32.73
2023-05-10T17:14:00.566Z,32.74
2023-05-10T17:34:01.420Z,32.73
2023-05-10T17:54:00.583Z,32.74
2023-05-10T18:13:59.705Z,32.74
2023-05-10T18:34:00.452Z,32.74
2023-05-10T18:53:59.670Z,32.74
2023-05-10T19:14:00.426Z,32.74
2023-05-10T19:34:00.940Z,32.75
2023-05-10T19:54:00.250Z,32.75
2023-05-10T20:13:59.844Z,32.75
2023-05-10T20:34:00.231Z,32.75
2023-05-10T20:54:00.352Z,32.75
2023-05-10T21:14:00.335Z,32.76
2023-05-10T21:54:00.298Z,32.76
2023-05-10T22:14:00.363Z,32.76
2023-05-10T22:33:59.778Z,32.77
2023-05-10T22:54:00.247Z,32.77
2023-05-10T23:13:59.455Z,32.77
2023-05-10T23:33:59.095Z,32.78
2023-05-10T23:54:00.210Z,32.77
